createdAt,value
2018-10-12T00:04:19.194Z,18.77
2018-10-12T00:09:23.115Z,19.82
2018-10-12T00:14:27.485Z,19.30
2018-10-12T00:19:30.909Z,18.05
2018-10-12T00:24:34.209Z,19.37
2018-10-12T00:29:37.453Z,19.57
2018-10-12T00:34:40.763Z,19.07
2018-10-12T00:39:44.017Z,18.00
2018-10-12T00:44:47.275Z,18.35
2018-10-12T00:49:50.716Z,19.65
2018-10-12T00:54:53.895Z,19.27
2018-10-12T00:59:57.939Z,18.30
2018-10-12T01:05:01.867Z,17.23
2018-10-12T01:10:06.044Z,18.70
2018-10-12T01:15:15.420Z,18.40
2018-10-12T01:20:18.764Z,17.70
2018-10-12T01:25:23.447Z,18.23
2018-10-12T01:30:26.786Z,19.73
2018-10-12T01:35:30.097Z,19.45
2018-10-12T01:40:33.556Z,19.30
2018-10-12T01:45:36.836Z,21.80
2018-10-12T01:50:40.119Z,19.23
2018-10-12T01:55:43.371Z,23.10
2018-10-12T02:00:47.297Z,20.35
2018-10-12T02:05:50.737Z,20.37
2018-10-12T02:10:54.000Z,21.40
2018-10-12T02:15:58.106Z,19.43
2018-10-12T02:21:01.785Z,22.45
2018-10-12T02:26:05.096Z,20.80
2018-10-12T02:31:08.332Z,21.55
2018-10-12T02:36:11.629Z,20.32
2018-10-12T02:41:14.876Z,22.00
2018-10-12T02:46:18.148Z,19.95
2018-10-12T02:51:21.470Z,21.60
2018-10-12T02:56:24.870Z,18.63
2018-10-12T03:01:28.131Z,20.27
2018-10-12T03:06:31.492Z,19.50
2018-10-12T03:11:34.790Z,19.00
2018-10-12T03:21:44.357Z,19.70
2018-10-12T03:26:57.520Z,17.52
2018-10-12T03:32:02.281Z,17.95
2018-10-12T03:37:05.821Z,17.23
2018-10-12T03:42:09.101Z,16.30
2018-10-12T03:47:13.055Z,14.80
2018-10-12T03:52:16.328Z,16.90
2018-10-12T03:57:19.624Z,16.80
2018-10-12T04:02:23.133Z,18.30
2018-10-12T04:07:26.607Z,18.15
2018-10-12T04:12:30.098Z,18.00
2018-10-12T04:17:33.514Z,18.37
2018-10-12T04:22:37.040Z,18.17
2018-10-12T04:27:40.422Z,18.40
2018-10-12T04:32:56.082Z,18.55
2018-10-12T04:38:00.840Z,16.97
2018-10-12T04:43:05.261Z,20.45
2018-10-12T04:48:12.304Z,18.43
2018-10-12T04:53:15.751Z,20.10
2018-10-12T04:58:19.258Z,19.50
2018-10-12T05:03:22.695Z,20.27
2018-10-12T05:08:26.202Z,20.70
2018-10-12T05:13:30.883Z,20.60
2018-10-12T05:18:35.315Z,20.40
2018-10-12T05:23:38.806Z,21.90
2018-10-12T05:28:42.581Z,21.80
2018-10-12T05:33:46.674Z,20.30
2018-10-12T05:38:50.317Z,20.48
2018-10-12T05:43:54.088Z,18.57
2018-10-12T05:49:10.048Z,20.62
2018-10-12T05:54:14.321Z,21.27
2018-10-12T05:59:18.009Z,21.20
2018-10-12T06:04:21.498Z,23.37
2018-10-12T06:09:25.188Z,21.30
2018-10-12T06:14:30.064Z,21.33
2018-10-12T06:19:33.679Z,21.17
2018-10-12T06:24:37.322Z,20.50
2018-10-12T06:29:40.810Z,19.50
2018-10-12T06:34:44.445Z,18.23
2018-10-12T06:39:47.889Z,21.15
2018-10-12T06:44:51.382Z,19.82
2018-10-12T06:49:54.975Z,20.47
2018-10-12T06:54:58.381Z,20.53
2018-10-12T07:00:01.864Z,23.38
2018-10-12T07:05:05.231Z,17.40
2018-10-12T07:10:08.699Z,20.48
2018-10-12T07:15:12.049Z,20.10
2018-10-12T07:20:15.422Z,18.42
2018-10-12T07:25:18.867Z,21.35
2018-10-12T07:30:22.293Z,17.67
2018-10-12T07:35:25.709Z,16.90
2018-10-12T07:40:29.237Z,18.83
2018-10-12T07:45:32.737Z,19.42
2018-10-12T07:50:37.425Z,19.30
2018-10-12T07:55:54.753Z,20.27
2018-10-12T08:01:00.173Z,18.80
2018-10-12T08:06:04.155Z,20.92
2018-10-12T08:11:08.289Z,20.05
2018-10-12T08:16:11.682Z,19.02
2018-10-12T08:21:15.373Z,17.30
2018-10-12T08:26:19.412Z,18.20
2018-10-12T08:31:23.296Z,17.30
2018-10-12T08:36:26.699Z,15.70
2018-10-12T08:41:30.177Z,15.33
2018-10-12T08:51:53.082Z,13.50
2018-10-12T08:56:56.488Z,13.80
2018-10-12T09:01:59.998Z,12.90
2018-10-12T09:07:03.417Z,12.50
2018-10-12T09:12:06.852Z,12.30
2018-10-12T09:17:10.866Z,13.10
2018-10-12T09:22:14.181Z,12.20
2018-10-12T09:27:17.729Z,12.00
2018-10-12T09:32:21.073Z,11.85
2018-10-12T09:37:25.772Z,9.90
2018-10-12T09:42:34.931Z,10.10
2018-10-12T09:47:38.404Z,9.45
2018-10-12T09:52:41.744Z,9.50
2018-10-12T09:57:45.130Z,7.95
2018-10-12T10:03:07.614Z,6.80
2018-10-12T10:08:11.052Z,7.00
2018-10-12T10:13:14.260Z,6.67
2018-10-12T10:18:19.042Z,6.17
2018-10-12T10:23:22.351Z,6.10
2018-10-12T10:28:25.670Z,5.80
2018-10-12T10:33:29.034Z,4.62
2018-10-12T10:38:32.617Z,3.87
2018-10-12T10:43:35.886Z,4.28
2018-10-12T10:48:39.156Z,3.50
2018-10-12T10:53:46.950Z,3.50
2018-10-12T11:04:19.436Z,3.70
2018-10-12T11:09:24.380Z,3.72
2018-10-12T11:14:29.345Z,3.80
2018-10-12T11:19:36.331Z,3.52
2018-10-12T11:24:43.005Z,3.70
2018-10-12T11:29:55.578Z,3.53
2018-10-12T11:35:00.660Z,3.33
2018-10-12T11:40:04.421Z,3.50
2018-10-12T11:45:08.472Z,3.90
2018-10-12T11:50:14.565Z,4.50
2018-10-12T11:55:37.615Z,3.80
2018-10-12T12:00:44.563Z,3.60
2018-10-12T12:05:48.282Z,3.83
2018-10-12T12:10:52.468Z,3.77
2018-10-12T12:15:57.159Z,3.70
2018-10-12T12:21:02.362Z,3.30
2018-10-12T12:26:12.915Z,3.20
2018-10-12T12:31:22.644Z,3.22
2018-10-12T12:36:26.384Z,3.30
2018-10-12T12:41:33.259Z,3.00
2018-10-12T12:46:37.547Z,3.40
2018-10-12T12:51:45.582Z,2.58
2018-10-12T12:56:49.286Z,2.93
2018-10-12T13:01:59.730Z,2.50
2018-10-12T13:07:03.986Z,2.80
2018-10-12T13:12:08.017Z,2.60
2018-10-12T13:17:12.299Z,2.50
2018-10-12T13:22:15.646Z,2.70
2018-10-12T13:27:19.228Z,2.83
2018-10-12T13:32:22.627Z,2.60
2018-10-12T13:37:25.976Z,2.70
2018-10-12T13:42:29.428Z,2.70
2018-10-12T13:47:32.959Z,3.00
2018-10-12T13:52:37.887Z,2.80
2018-10-12T13:57:42.665Z,2.47
2018-10-12T14:02:46.322Z,2.52
2018-10-12T14:07:50.201Z,2.55
2018-10-12T14:12:54.473Z,2.52
2018-10-12T14:17:58.263Z,2.47
2018-10-12T14:23:02.498Z,2.50
2018-10-12T14:28:06.124Z,2.62
2018-10-12T14:33:10.488Z,2.30
2018-10-12T14:38:15.460Z,2.50
2018-10-12T14:43:20.469Z,3.40
2018-10-12T14:48:23.836Z,2.40
2018-10-12T14:53:28.398Z,2.40
2018-10-12T14:58:41.878Z,2.40
2018-10-12T15:03:47.790Z,2.20
2018-10-12T15:08:53.514Z,2.40
2018-10-12T15:13:58.025Z,2.27
2018-10-12T15:19:02.252Z,2.30
2018-10-12T15:24:07.926Z,2.47
2018-10-12T15:29:11.866Z,2.40
2018-10-12T15:34:15.793Z,2.20
2018-10-12T15:39:22.095Z,2.33
2018-10-12T15:44:27.581Z,3.10
2018-10-12T15:49:34.155Z,2.50
2018-10-12T15:54:39.593Z,3.10
2018-10-12T15:59:42.935Z,2.67
2018-10-12T16:04:49.433Z,3.40
2018-10-12T16:09:53.673Z,3.08
2018-10-12T16:15:06.718Z,2.92
2018-10-12T16:20:14.472Z,2.60
2018-10-12T16:26:00.633Z,2.40
2018-10-12T16:31:04.056Z,3.62
2018-10-12T16:36:07.565Z,3.40
2018-10-12T16:41:10.906Z,3.20
2018-10-12T16:46:14.288Z,3.30
2018-10-12T16:51:17.957Z,3.70
2018-10-12T16:56:21.426Z,3.15
2018-10-12T17:01:24.829Z,7.60
2018-10-12T17:06:28.269Z,8.20
2018-10-12T17:11:31.694Z,4.45
2018-10-12T17:16:35.136Z,3.60
2018-10-12T17:21:38.740Z,3.80
2018-10-12T17:26:43.507Z,4.67
2018-10-12T17:31:47.008Z,5.60
2018-10-12T17:36:51.242Z,5.55
2018-10-12T17:41:54.698Z,4.80
2018-10-12T17:46:58.264Z,15.50
2018-10-12T17:52:01.726Z,7.60
2018-10-12T17:57:05.833Z,5.78
2018-10-12T18:02:09.518Z,6.28
2018-10-12T18:07:12.871Z,10.63
2018-10-12T18:12:16.342Z,9.60
2018-10-12T18:17:19.832Z,6.50
2018-10-12T18:22:23.161Z,7.40
2018-10-12T18:27:26.538Z,13.30
2018-10-12T18:32:30.045Z,7.10
2018-10-12T18:37:33.375Z,6.53
2018-10-12T18:42:36.812Z,8.30
2018-10-12T18:47:40.397Z,21.57
2018-10-12T18:52:43.819Z,19.53
2018-10-12T18:57:47.274Z,7.95
2018-10-12T19:02:50.703Z,6.80
2018-10-12T19:07:54.242Z,13.90
2018-10-12T19:12:57.789Z,11.55
2018-10-12T19:18:01.797Z,8.53
2018-10-12T19:23:05.380Z,8.55
2018-10-12T19:28:08.785Z,9.80
2018-10-12T19:33:12.237Z,8.60
2018-10-12T19:38:15.880Z,5.95
2018-10-12T19:43:19.324Z,7.40
2018-10-12T19:48:22.850Z,6.03
2018-10-12T19:53:26.282Z,5.87
2018-10-12T19:58:29.857Z,6.10
2018-10-12T20:03:33.353Z,6.70
2018-10-12T20:08:36.693Z,6.80
2018-10-12T20:13:40.130Z,7.33
2018-10-12T20:18:43.758Z,8.83
2018-10-12T20:23:47.273Z,14.37
2018-10-12T20:28:50.938Z,16.20
2018-10-12T20:33:54.407Z,20.02
2018-10-12T20:38:57.826Z,14.70
2018-10-12T20:44:01.311Z,12.27
2018-10-12T20:49:04.802Z,10.03
2018-10-12T20:54:08.420Z,8.63
2018-10-12T20:59:12.452Z,7.40
2018-10-12T21:04:15.864Z,7.60
2018-10-12T21:09:19.330Z,6.72
2018-10-12T21:14:23.498Z,7.00
2018-10-12T21:19:27.015Z,7.80
2018-10-12T21:24:30.561Z,7.15
2018-10-12T21:29:33.927Z,8.00
2018-10-12T21:34:38.595Z,8.80
2018-10-12T21:39:42.084Z,9.00
2018-10-12T21:44:45.698Z,9.28
2018-10-12T21:49:49.332Z,8.50
2018-10-12T21:54:52.778Z,8.50
2018-10-12T21:59:56.400Z,8.40
2018-10-12T22:05:01.218Z,8.60
2018-10-12T22:10:06.715Z,8.30
2018-10-12T22:15:10.162Z,8.00
2018-10-12T22:20:13.850Z,8.33
2018-10-12T22:25:17.392Z,7.97
2018-10-12T22:30:20.938Z,7.50
2018-10-12T22:35:24.410Z,7.30
2018-10-12T22:40:27.950Z,7.75
2018-10-12T22:45:31.457Z,7.92
2018-10-12T22:50:34.891Z,7.40
2018-10-12T22:55:38.796Z,7.70
2018-10-12T23:00:42.316Z,8.20
2018-10-12T23:05:45.939Z,8.63
2018-10-12T23:10:49.550Z,9.18
2018-10-12T23:15:52.997Z,9.20
2018-10-12T23:20:56.579Z,9.88
2018-10-12T23:26:00.264Z,12.40
2018-10-12T23:31:03.753Z,12.53
2018-10-12T23:36:07.353Z,9.00
2018-10-12T23:41:10.834Z,8.90
2018-10-12T23:46:14.244Z,8.53
2018-10-12T23:51:17.779Z,9.00
2018-10-12T23:56:21.479Z,8.38
